Time;durP1;ratioP1;P1;durP2;ratioP2;P2;SDS_P1;SDS_P2;PMS_P1;PMS_P2;Temp;Humidity;BMP_temperature;BMP_pressure;BME280_temperature;BME280_humidity;BME280_pressure;Samples;Min_cycle;Max_cycle;Signal;HPM_P1;HPM_P2
2022/11/04 00:00:46;;;;;;;20.80;12.50;;;;;;;11.93;65.87;97321.44;4988284;28;20255;-77
2022/11/04 00:03:13;;;;;;;22.23;15.77;;;;;;;11.99;64.85;97320.31;4987842;28;20197;-77
2022/11/04 00:05:40;;;;;;;26.27;16.07;;;;;;;11.85;66.17;97310.56;4988518;28;20284;-78
2022/11/04 00:08:22;;;;;;;22.53;15.07;;;;;;;11.98;65.80;97310.84;4987821;28;20223;-75
2022/11/04 00:13:42;;;;;;;21.93;13.50;;;;;;;12.09;65.59;97322.41;4987817;28;20193;-76
2022/11/04 00:18:55;;;;;;;20.87;13.47;;;;;;;12.29;64.80;97311.06;4987873;28;20590;-77
2022/11/04 00:30:07;;;;;;;17.23;11.70;;;;;;;12.21;64.07;97318.38;4965691;28;20207;-76
2022/11/04 00:35:21;;;;;;;15.73;11.90;;;;;;;12.30;63.27;97311.91;4987572;28;20188;-76
2022/11/04 00:37:48;;;;;;;16.00;11.90;;;;;;;12.27;63.41;97310.31;4987583;28;20246;-77
2022/11/04 00:40:15;;;;;;;15.03;9.67;;;;;;;12.06;63.00;97303.53;4987983;28;20201;-77
2022/11/04 00:42:44;;;;;;;13.87;11.03;;;;;;;12.03;63.77;97308.88;4987477;28;20202;-75
2022/11/04 00:45:11;;;;;;;15.27;10.83;;;;;;;11.84;63.64;97308.06;4986197;28;20730;-77
2022/11/04 00:47:38;;;;;;;15.17;10.60;;;;;;;11.66;63.90;97309.75;4987444;28;20191;-78
2022/11/04 00:50:06;;;;;;;13.60;9.80;;;;;;;11.58;64.61;97316.16;4989071;28;20218;-77
2022/11/04 00:52:33;;;;;;;19.47;11.63;;;;;;;11.56;64.65;97295.47;4991941;28;20316;-75
2022/11/04 00:55:00;;;;;;;22.13;12.10;;;;;;;11.27;66.08;97307.16;4991356;28;20580;-77
2022/11/04 00:57:29;;;;;;;19.83;12.20;;;;;;;10.89;67.65;97304.53;4991755;28;20774;-78
2022/11/04 00:59:56;;;;;;;19.83;11.83;;;;;;;10.70;68.28;97299.28;4991175;28;20196;-79
2022/11/04 01:02:23;;;;;;;21.10;14.17;;;;;;;10.48;70.67;97301.09;4991543;28;20217;-79
2022/11/04 01:04:50;;;;;;;20.10;13.47;;;;;;;10.31;71.41;97299.19;4990075;28;20196;-78
2022/11/04 01:07:17;;;;;;;19.67;13.70;;;;;;;10.07;72.63;97296.72;4989964;28;20585;-79
2022/11/04 01:09:44;;;;;;;23.13;14.93;;;;;;;9.95;73.06;97297.22;4991133;28;20203;-79
2022/11/04 01:12:11;;;;;;;23.63;14.90;;;;;;;10.03;73.07;97295.16;4990951;28;20219;-79
2022/11/04 01:14:37;;;;;;;23.53;13.87;;;;;;;10.21;72.67;97295.31;4991486;28;20185;-78
2022/11/04 01:17:04;;;;;;;17.77;13.27;;;;;;;10.40;71.78;97291.06;4990934;28;20190;-78
2022/11/04 01:19:31;;;;;;;21.60;13.87;;;;;;;10.42;71.75;97283.22;4991093;28;20222;-78
2022/11/04 01:21:58;;;;;;;21.30;13.87;;;;;;;10.35;71.37;97271.44;4991130;28;20196;-78
2022/11/04 01:24:25;;;;;;;20.87;13.77;;;;;;;10.46;70.88;97289.97;4991045;28;20184;-76
2022/11/04 01:26:52;;;;;;;21.93;15.83;;;;;;;10.47;71.02;97281.28;4990979;28;20283;-77
2022/11/04 01:29:19;;;;;;;25.23;16.53;;;;;;;10.37;71.50;97279.97;4990746;28;20197;-75
2022/11/04 01:31:46;;;;;;;23.50;17.03;;;;;;;10.44;71.56;97282.28;4990909;28;20219;-77
2022/11/04 01:34:13;;;;;;;25.33;16.17;;;;;;;10.36;71.71;97276.56;4990845;28;20303;-77
2022/11/04 01:36:40;;;;;;;23.20;16.77;;;;;;;10.34;72.52;97269.75;4989913;28;20247;-76
2022/11/04 01:39:06;;;;;;;27.07;18.00;;;;;;;10.13;72.51;97265.47;4990614;28;20212;-78
2022/11/04 01:41:33;;;;;;;25.03;17.20;;;;;;;10.27;72.40;97268.31;4989291;28;20189;-79
2022/11/04 01:44:03;;;;;;;23.13;16.47;;;;;;;10.38;71.95;97273.91;4990634;28;20190;-79
2022/11/04 01:46:42;;;;;;;27.20;16.23;;;;;;;10.24;71.89;97258.09;4990740;28;20211;-78
2022/11/04 01:49:22;;;;;;;23.40;15.43;;;;;;;10.38;72.05;97266.16;4991121;28;20187;-75
2022/11/04 01:51:52;;;;;;;20.00;13.63;;;;;;;10.56;70.63;97262.78;4990271;28;20282;-75
2022/11/04 01:54:20;;;;;;;25.67;15.03;;;;;;;10.43;70.64;97212.41;4973058;28;20182;-76
2022/11/04 01:56:47;;;;;;;24.93;16.77;;;;;;;10.84;69.89;97262.47;4990320;28;20227;-75
2022/11/04 01:59:27;;;;;;;27.57;15.83;;;;;;;10.81;69.89;97263.44;4990262;28;20199;-75
2022/11/04 02:01:54;;;;;;;26.07;15.83;;;;;;;10.81;69.44;97257.41;4989412;28;20187;-76
2022/11/04 02:04:24;;;;;;;23.53;15.40;;;;;;;10.86;68.43;97245.91;4990094;28;20219;-76
2022/11/04 02:07:04;;;;;;;21.20;14.37;;;;;;;10.83;68.75;97242.63;4989245;28;20611;-77
2022/11/04 02:09:32;;;;;;;20.87;14.77;;;;;;;10.85;69.18;97256.34;4972490;28;20195;-76
2022/11/04 02:14:47;;;;;;;22.40;14.50;;;;;;;10.58;69.49;97253.19;4990060;28;20189;-75
2022/11/04 02:17:17;;;;;;;20.63;12.47;;;;;;;10.60;69.25;97252.25;4988420;28;20199;-75
2022/11/04 02:19:59;;;;;;;17.13;11.97;;;;;;;10.48;69.51;97247.56;4972564;28;20231;-75
2022/11/04 02:22:56;;;;;;;17.50;11.13;;;;;;;10.29;69.69;97240.63;4989817;28;20188;-75
2022/11/04 02:25:37;;;;;;;14.37;10.00;;;;;;;10.25;70.17;97244.25;4989686;28;20188;-75
2022/11/04 02:28:19;;;;;;;16.03;9.87;;;;;;;10.20;70.17;97239.25;4989967;28;20195;-75
2022/11/04 02:30:54;;;;;;;14.57;9.07;;;;;;;10.23;70.04;97228.78;4989886;28;20224;-75
2022/11/04 02:33:28;;;;;;;16.60;10.80;;;;;;;10.41;69.54;97229.75;4989796;28;20191;-76
2022/11/04 02:36:08;;;;;;;19.00;10.57;;;;;;;10.51;69.03;97234.47;4989673;28;20203;-75
2022/11/04 02:38:56;;;;;;;15.47;10.33;;;;;;;10.22;70.20;97237.44;4972100;28;20271;-75
2022/11/04 02:41:39;;;;;;;14.97;9.67;;;;;;;9.81;71.09;97233.06;4989751;28;20544;-75
2022/11/04 02:44:15;;;;;;;14.73;10.03;;;;;;;9.49;71.87;97211.06;4989456;28;20254;-76
2022/11/04 02:46:59;;;;;;;16.33;9.80;;;;;;;9.69;72.00;97218.88;4989298;28;20575;-75
2022/11/04 02:49:37;;;;;;;15.43;9.97;;;;;;;9.75;71.20;97228.97;4989592;28;20219;-76
2022/11/04 02:52:15;;;;;;;15.50;9.67;;;;;;;9.46;71.98;97218.94;4971632;28;20223;-75
2022/11/04 02:54:53;;;;;;;16.50;9.87;;;;;;;9.45;72.50;97225.03;4989798;28;20296;-75
2022/11/04 02:57:26;;;;;;;15.87;9.60;;;;;;;9.48;73.11;97218.91;4989279;28;20202;-76
2022/11/04 03:00:05;;;;;;;14.13;9.50;;;;;;;9.56;72.53;97224.59;4989251;28;20975;-75
2022/11/04 03:02:41;;;;;;;17.07;10.43;;;;;;;9.67;72.72;97223.28;4987879;28;20649;-76
2022/11/04 03:05:12;;;;;;;18.10;10.30;;;;;;;9.46;73.50;97226.69;4988871;28;20183;-75
2022/11/04 03:07:42;;;;;;;16.23;10.77;;;;;;;9.39;73.96;97225.25;4989240;28;20184;-75
2022/11/04 03:10:17;;;;;;;18.50;11.07;;;;;;;9.33;73.78;97220.31;4971341;28;20252;-76
2022/11/04 03:12:54;;;;;;;15.03;10.03;;;;;;;9.28;74.34;97226.53;4987320;28;20803;-76
2022/11/04 03:15:30;;;;;;;16.67;10.43;;;;;;;9.20;74.45;97238.91;4989035;28;20198;-78
2022/11/04 03:18:06;;;;;;;19.07;11.20;;;;;;;9.18;74.69;97235.53;4987518;28;20223;-78
2022/11/04 03:20:37;;;;;;;16.40;10.43;;;;;;;9.02;75.01;97230.09;4988904;28;20631;-79
2022/11/04 03:23:05;;;;;;;16.07;10.23;;;;;;;9.09;75.10;97231.56;4988662;28;20430;-79
2022/11/04 03:25:36;;;;;;;20.13;10.97;;;;;;;9.07;75.59;97228.19;4987714;28;20196;-75
2022/11/04 03:28:31;;;;;;;18.40;10.53;;;;;;;9.12;75.75;97228.88;4988740;28;20216;-75
2022/11/04 03:31:02;;;;;;;14.73;10.37;;;;;;;9.06;75.19;97220.50;4988406;28;20261;-75
2022/11/04 03:33:51;;;;;;;16.80;10.73;;;;;;;9.19;75.05;97201.88;4989078;28;20294;-76
2022/11/04 03:36:20;;;;;;;17.77;11.03;;;;;;;9.30;75.23;97215.25;4988214;28;20192;-75
2022/11/04 03:38:48;;;;;;;16.10;11.40;;;;;;;9.40;74.62;97211.41;4988550;28;20686;-76
2022/11/04 03:41:59;;;;;;;18.57;11.47;;;;;;;9.55;74.38;97208.25;4988379;28;20196;-75
2022/11/04 03:44:28;;;;;;;17.00;10.70;;;;;;;9.65;74.81;97209.56;4960222;28;20219;-76
2022/11/04 03:46:55;;;;;;;21.27;11.93;;;;;;;9.67;73.94;97210.34;4988437;28;20187;-75
2022/11/04 03:49:23;;;;;;;24.23;11.73;;;;;;;9.64;74.26;97215.63;4988220;28;20212;-74
2022/11/04 03:51:51;;;;;;;16.23;11.00;;;;;;;9.62;73.91;97211.44;4988046;28;20219;-75
2022/11/04 03:54:19;;;;;;;19.73;11.73;;;;;;;9.61;74.18;97215.75;4988214;28;20184;-76
2022/11/04 03:57:23;;;;;;;18.00;11.80;;;;;;;9.73;73.76;97212.69;4987990;28;20251;-75
2022/11/04 04:00:02;;;;;;;18.37;12.93;;;;;;;9.44;75.15;97217.28;4961011;28;20532;-74
2022/11/04 04:02:36;;;;;;;20.33;12.63;;;;;;;9.35;75.39;97213.34;4988022;28;20199;-74
2022/11/04 04:05:15;;;;;;;18.43;12.37;;;;;;;9.44;75.27;97212.97;4970720;28;20188;-75
2022/11/04 04:07:52;;;;;;;23.07;13.03;;;;;;;9.59;74.95;97220.16;4970730;28;20188;-74
2022/11/04 04:10:39;;;;;;;18.80;12.87;;;;;;;9.63;74.60;97213.97;4987740;28;20194;-75
2022/11/04 04:13:18;;;;;;;19.83;12.57;;;;;;;9.61;75.08;97217.50;4986331;28;20630;-75
2022/11/04 04:15:51;;;;;;;23.40;12.80;;;;;;;9.52;74.89;97217.88;4987794;28;20573;-75
2022/11/04 04:18:28;;;;;;;23.07;14.53;;;;;;;9.50;75.44;97215.31;4987876;28;20296;-75
2022/11/04 04:20:58;;;;;;;17.43;11.93;;;;;;;9.43;75.23;97200.97;4987820;28;20314;-75
2022/11/04 04:29:05;;;;;;;19.13;12.50;;;;;;;9.41;76.00;97218.28;4987907;28;20609;-75
2022/11/04 04:31:48;;;;;;;16.57;12.17;;;;;;;9.26;76.80;97195.59;4985935;28;20688;-75
2022/11/04 04:34:24;;;;;;;19.37;12.30;;;;;;;9.28;77.54;97206.72;4988016;28;20188;-75
2022/11/04 04:37:04;;;;;;;19.10;13.00;;;;;;;9.37;77.16;97203.78;4987411;28;20187;-75
2022/11/04 04:45:38;;;;;;;17.23;11.20;;;;;;;9.56;76.68;97202.16;4987251;28;20219;-75
2022/11/04 04:48:08;;;;;;;17.40;11.47;;;;;;;9.56;76.40;97206.50;4986002;28;20191;-75
2022/11/04 04:50:42;;;;;;;21.23;12.37;;;;;;;9.72;75.35;97197.25;4987339;28;20694;-75
2022/11/04 04:53:10;;;;;;;24.53;12.33;;;;;;;9.84;74.93;97202.78;4986959;28;20224;-74
2022/11/04 04:55:37;;;;;;;26.00;12.67;;;;;;;9.79;75.19;97204.69;4987639;28;20192;-75
2022/11/04 04:58:08;;;;;;;18.40;12.07;;;;;;;10.00;73.99;97208.16;4986951;28;20219;-76
2022/11/04 05:00:35;;;;;;;20.60;11.17;;;;;;;10.16;73.66;97205.81;4987234;28;20226;-76
2022/11/04 05:03:02;;;;;;;21.10;12.63;;;;;;;10.30;73.01;97203.50;4987180;28;20712;-77
2022/11/04 05:05:29;;;;;;;17.70;10.90;;;;;;;10.32;72.71;97204.28;4987467;28;20661;-76
2022/11/04 05:08:04;;;;;;;18.73;11.60;;;;;;;10.40;72.15;97207.38;4987358;28;20334;-76
2022/11/04 05:10:31;;;;;;;19.63;12.10;;;;;;;10.39;71.85;97210.84;4986940;28;20198;-76
2022/11/04 05:15:44;;;;;;;20.93;11.93;;;;;;;10.40;71.30;97217.72;4970223;28;20196;-78
2022/11/04 05:18:11;;;;;;;24.43;13.30;;;;;;;10.18;72.09;97191.06;4967443;28;20192;-77
2022/11/04 05:20:39;;;;;;;18.60;11.90;;;;;;;10.23;71.95;97225.34;4967510;28;20228;-76
2022/11/04 05:23:07;;;;;;;20.73;12.03;;;;;;;10.21;72.21;97227.16;4966054;28;20199;-76
2022/11/04 05:25:34;;;;;;;23.13;12.77;;;;;;;10.13;72.31;97237.84;4968038;28;20195;-76
2022/11/04 05:28:01;;;;;;;21.40;12.57;;;;;;;10.09;72.63;97233.66;4966082;28;20197;-76
2022/11/04 05:30:28;;;;;;;21.77;12.90;;;;;;;10.09;72.36;97227.63;4966845;28;20196;-76
2022/11/04 05:32:55;;;;;;;17.90;11.93;;;;;;;9.95;72.67;97228.22;4966468;28;20248;-76
2022/11/04 05:35:29;;;;;;;21.37;11.60;;;;;;;9.99;72.51;97227.19;4968914;28;20193;-76
2022/11/04 05:37:56;;;;;;;20.77;11.97;;;;;;;10.04;72.97;97224.38;4970671;28;20267;-75
2022/11/04 05:40:23;;;;;;;24.00;13.80;;;;;;;10.25;72.19;97250.28;4970843;28;20231;-75
2022/11/04 05:42:50;;;;;;;18.43;11.63;;;;;;;10.07;72.98;97239.78;4970817;28;20575;-77
2022/11/04 05:45:17;;;;;;;20.73;12.33;;;;;;;9.91;73.58;97233.56;4970476;28;20268;-77
2022/11/04 05:47:44;;;;;;;19.77;11.80;;;;;;;9.92;73.79;97245.56;4969869;28;20209;-75
2022/11/04 05:50:11;;;;;;;25.63;12.87;;;;;;;9.90;74.06;97242.22;4970561;28;20327;-75
2022/11/04 05:52:38;;;;;;;23.23;11.50;;;;;;;9.92;74.49;97243.00;4969407;28;20218;-76
2022/11/04 05:55:05;;;;;;;21.53;12.00;;;;;;;9.89;74.97;97232.78;4970530;28;20184;-75
2022/11/04 05:57:34;;;;;;;21.90;12.27;;;;;;;9.99;74.55;97232.34;4969148;28;20192;-75
2022/11/04 06:00:01;;;;;;;19.40;12.17;;;;;;;10.10;74.66;97245.72;4970274;28;20236;-75
2022/11/04 06:02:30;;;;;;;24.43;12.00;;;;;;;10.16;74.55;97236.88;4968828;28;20188;-75
2022/11/04 06:04:57;;;;;;;20.60;12.00;;;;;;;10.36;73.54;97236.88;4970589;28;20199;-75
2022/11/04 06:07:24;;;;;;;22.37;11.67;;;;;;;10.52;73.24;97249.13;4970035;28;20185;-76
2022/11/04 06:09:51;;;;;;;20.03;16.80;;;;;;;10.77;72.86;97248.94;4970361;28;20637;-76
2022/11/04 06:12:18;;;;;;;18.00;11.67;;;;;;;10.86;72.24;97258.88;4969839;28;20235;-76
2022/11/04 06:14:45;;;;;;;19.30;12.23;;;;;;;10.87;71.77;97265.75;4968812;28;20193;-76
2022/11/04 06:17:17;;;;;;;23.20;12.83;;;;;;;11.01;71.58;97258.22;4968914;28;20193;-75
2022/11/04 06:19:44;;;;;;;18.77;10.90;;;;;;;10.94;71.53;97254.19;4968332;28;20654;-76
2022/11/04 06:22:13;;;;;;;18.17;11.17;;;;;;;11.04;71.00;97268.47;4968981;28;20592;-76
2022/11/04 06:24:40;;;;;;;21.97;11.60;;;;;;;11.16;70.52;97267.91;4970006;28;20190;-76
2022/11/04 06:27:47;;;;;;;17.40;11.00;;;;;;;11.21;70.58;97268.53;4969488;28;20202;-76
2022/11/04 06:31:08;;;;;;;28.80;12.10;;;;;;;11.34;70.17;97277.44;4956796;28;20303;-77
2022/11/04 06:33:49;;;;;;;18.80;11.47;;;;;;;11.69;69.46;97277.63;4968645;28;20224;-77
2022/11/04 06:36:29;;;;;;;20.97;12.70;;;;;;;11.64;69.77;97267.44;4966175;28;20253;-76
2022/11/04 06:39:36;;;;;;;18.23;12.17;;;;;;;11.67;69.09;97271.66;4968625;28;20190;-75
2022/11/04 06:42:57;;;;;;;18.93;10.90;;;;;;;11.75;69.58;97272.16;4970012;28;20251;-76
2022/11/04 06:46:17;;;;;;;17.67;10.17;;;;;;;11.92;69.05;97274.78;4968470;28;20193;-76
2022/11/04 06:48:58;;;;;;;19.37;13.00;;;;;;;12.10;68.10;97273.91;4967443;28;20258;-76
2022/11/04 06:51:25;;;;;;;21.37;11.87;;;;;;;12.15;68.10;97265.00;4969306;28;20189;-76
2022/11/04 06:53:53;;;;;;;18.93;11.37;;;;;;;12.05;69.01;97271.56;4969195;28;20739;-76
2022/11/04 06:56:20;;;;;;;18.83;11.37;;;;;;;12.13;68.76;97273.78;4969621;28;20738;-76
2022/11/04 06:58:48;;;;;;;20.80;11.80;;;;;;;12.39;67.94;97268.16;4967470;28;20638;-77
2022/11/04 07:01:17;;;;;;;19.03;12.40;;;;;;;12.58;67.50;97260.28;4969344;28;20201;-77
2022/11/04 07:03:49;;;;;;;21.87;10.83;;;;;;;12.77;66.94;97271.44;4968702;28;20190;-77
2022/11/04 07:06:17;;;;;;;21.30;11.60;;;;;;;12.97;66.72;97274.72;4967802;28;20716;-77
2022/11/04 07:08:45;;;;;;;14.50;9.33;;;;;;;12.98;65.56;97272.97;4969389;28;20558;-77
2022/11/04 07:11:12;;;;;;;21.70;10.77;;;;;;;12.83;66.33;97248.59;4968718;28;20210;-76
2022/11/04 07:13:39;;;;;;;20.97;12.10;;;;;;;12.90;66.54;97265.53;4968552;28;20315;-77
2022/11/04 07:16:07;;;;;;;13.80;9.50;;;;;;;13.00;66.24;97252.91;4968419;28;20300;-77
2022/11/04 07:18:35;;;;;;;16.93;10.63;;;;;;;13.05;65.42;97250.94;4968943;28;20671;-76
2022/11/04 07:21:02;;;;;;;18.87;10.77;;;;;;;12.88;66.82;97267.38;4966268;28;20231;-77
2022/11/04 07:23:36;;;;;;;14.73;10.10;;;;;;;13.01;66.13;97258.03;4968659;28;20206;-77
2022/11/04 07:26:05;;;;;;;18.93;11.57;;;;;;;13.33;65.69;97258.16;4967073;28;20191;-76
2022/11/04 07:28:33;;;;;;;20.33;10.90;;;;;;;13.40;65.21;97246.47;4968573;28;20205;-77
2022/11/04 07:31:02;;;;;;;30.93;16.50;;;;;;;13.63;64.46;97248.69;4968281;28;20230;-77
2022/11/04 07:33:28;;;;;;;19.07;11.13;;;;;;;13.65;64.44;97232.06;4967602;28;20223;-77
2022/11/04 07:35:55;;;;;;;30.83;12.03;;;;;;;13.78;63.89;97234.84;4966915;28;20653;-77
2022/11/04 07:38:24;;;;;;;18.87;11.80;;;;;;;13.97;63.79;97238.09;4967781;28;20288;-77
2022/11/04 07:40:51;;;;;;;20.13;11.53;;;;;;;13.95;63.20;97221.69;4966452;28;20198;-78
2022/11/04 07:43:18;;;;;;;24.67;11.40;;;;;;;14.20;63.09;97229.81;4967674;28;20254;-78
2022/11/04 07:45:45;;;;;;;15.73;11.40;;;;;;;14.24;62.76;97231.31;4967928;28;20219;-76
2022/11/04 07:48:12;;;;;;;19.00;11.47;;;;;;;14.25;62.43;97227.78;4967623;28;20194;-76
2022/11/04 07:50:40;;;;;;;14.33;10.10;;;;;;;14.19;61.65;97217.72;4965922;28;20255;-76
2022/11/04 07:53:07;;;;;;;21.13;12.83;;;;;;;14.38;62.39;97222.75;4967133;28;20757;-76
2022/11/04 07:55:36;;;;;;;20.97;11.77;;;;;;;14.61;61.53;97223.06;4965897;28;20188;-76
2022/11/04 07:58:09;;;;;;;25.43;14.03;;;;;;;14.79;61.05;97210.72;4967344;28;20195;-76
2022/11/04 08:00:36;;;;;;;23.80;15.33;;;;;;;15.00;60.16;97211.22;4967357;28;20189;-76
2022/11/04 08:03:03;;;;;;;19.80;11.27;;;;;;;14.55;61.05;97205.19;4967688;28;20191;-77
2022/11/04 08:05:30;;;;;;;20.30;11.87;;;;;;;14.78;60.23;97193.41;4966477;28;20213;-76
2022/11/04 08:07:57;;;;;;;23.80;13.20;;;;;;;14.94;59.76;97209.78;4967604;28;20664;-76
2022/11/04 08:10:24;;;;;;;23.30;12.57;;;;;;;15.11;59.16;97204.41;4966434;28;20196;-76
2022/11/04 08:12:51;;;;;;;22.20;12.20;;;;;;;15.17;58.96;97197.97;4949809;28;20323;-76
2022/11/04 08:15:18;;;;;;;23.00;14.67;;;;;;;15.08;59.87;97193.31;4966473;28;20196;-76
2022/11/04 08:17:45;;;;;;;22.90;11.63;;;;;;;15.03;60.29;97201.41;4967406;28;20196;-76
2022/11/04 08:20:13;;;;;;;20.13;11.37;;;;;;;14.57;60.40;97166.84;4965035;28;20522;-78
2022/11/04 08:22:40;;;;;;;29.87;12.60;;;;;;;14.54;61.07;97174.00;4966770;28;20240;-76
2022/11/04 08:25:07;;;;;;;28.77;14.20;;;;;;;14.86;61.20;97172.09;4966964;28;20204;-76
2022/11/04 08:27:34;;;;;;;27.23;14.93;;;;;;;15.11;60.85;97183.53;4967522;28;20236;-76
2022/11/04 08:30:02;;;;;;;25.30;13.77;;;;;;;15.21;60.71;97176.81;4967024;28;20195;-77
2022/11/04 08:32:29;;;;;;;25.00;12.07;;;;;;;15.23;60.78;97182.78;4967480;28;20188;-78
2022/11/04 08:34:56;;;;;;;38.10;19.33;;;;;;;15.12;61.41;97176.56;4967029;28;20184;-77
2022/11/04 08:37:23;;;;;;;30.67;15.17;;;;;;;14.99;62.21;97163.41;4966029;28;20261;-74
2022/11/04 08:39:50;;;;;;;24.23;12.23;;;;;;;15.16;61.61;97159.78;4967048;28;20204;-76
2022/11/04 08:42:17;;;;;;;19.83;10.67;;;;;;;15.17;61.23;97164.03;4965240;28;20214;-77
2022/11/04 08:44:50;;;;;;;15.50;10.77;;;;;;;14.93;62.24;97160.34;4965686;28;20893;-77
2022/11/04 08:47:17;;;;;;;20.20;11.13;;;;;;;15.10;62.15;97170.59;4967063;28;20212;-79
2022/11/04 08:49:47;;;;;;;20.17;11.17;;;;;;;14.98;63.13;97163.53;4967130;28;20216;-76
2022/11/04 08:52:14;;;;;;;20.40;10.73;;;;;;;15.22;61.60;97160.25;4966762;28;20202;-78
2022/11/04 08:54:43;;;;;;;18.03;9.80;;;;;;;14.98;61.77;97150.47;4967017;28;20250;-76
2022/11/04 08:57:10;;;;;;;19.70;10.70;;;;;;;15.09;61.48;97140.22;4966531;28;20284;-76
2022/11/04 08:59:37;;;;;;;17.83;12.40;;;;;;;15.11;61.54;97140.94;4966524;28;20244;-76
2022/11/04 09:02:04;;;;;;;15.27;10.97;;;;;;;15.57;60.50;97139.78;4965387;28;20749;-77
2022/11/04 09:04:31;;;;;;;17.17;10.77;;;;;;;15.54;61.06;97126.09;4966759;28;20649;-76
2022/11/04 09:07:01;;;;;;;17.13;10.60;;;;;;;15.89;60.43;97133.31;4965958;28;20232;-76
2022/11/04 09:09:34;;;;;;;34.90;12.93;;;;;;;16.15;59.40;97127.22;4965500;28;20284;-77
2022/11/04 09:12:01;;;;;;;19.60;11.37;;;;;;;16.22;58.74;97110.16;4969810;28;20189;-77
2022/11/04 09:14:27;;;;;;;15.97;10.60;;;;;;;16.44;58.63;97106.13;4970441;28;20221;-75
2022/11/04 09:16:55;;;;;;;23.00;11.20;;;;;;;16.52;59.01;97117.78;4970536;28;20640;-75
2022/11/04 09:19:21;;;;;;;16.30;10.90;;;;;;;16.12;60.45;97116.94;4970015;28;20222;-76
2022/11/04 09:21:48;;;;;;;18.10;10.67;;;;;;;16.30;59.64;97107.88;4970904;28;20627;-76
2022/11/04 09:24:15;;;;;;;18.07;10.43;;;;;;;16.23;60.50;97106.63;4969651;28;20281;-77
2022/11/04 09:26:43;;;;;;;17.40;11.07;;;;;;;16.44;60.00;97112.19;4969005;28;20197;-76
2022/11/04 09:29:10;;;;;;;22.20;10.73;;;;;;;16.51;59.40;97094.31;4969402;28;20592;-77
2022/11/04 09:31:38;;;;;;;22.40;11.80;;;;;;;16.64;59.94;97098.63;4968980;28;20251;-76
2022/11/04 09:34:05;;;;;;;22.67;12.07;;;;;;;16.63;60.21;97096.94;4970369;28;20885;-75
2022/11/04 09:36:31;;;;;;;18.93;12.43;;;;;;;16.49;60.42;97090.94;4970097;28;20566;-75
2022/11/04 09:38:58;;;;;;;22.13;12.50;;;;;;;16.48;61.21;97086.66;4970496;28;20190;-74
2022/11/04 09:42:01;;;;;;;23.47;12.10;;;;;;;16.26;61.82;97082.03;4970449;28;20581;-76
2022/11/04 09:44:47;;;;;;;21.80;12.70;;;;;;;16.65;60.96;97076.75;4969878;28;20191;-76
2022/11/04 09:47:35;;;;;;;16.97;10.73;;;;;;;16.92;59.79;97055.66;4970106;28;20182;-76
2022/11/04 09:50:09;;;;;;;19.97;11.07;;;;;;;16.99;59.90;97047.28;4970039;28;20208;-75
2022/11/04 09:52:40;;;;;;;23.47;12.57;;;;;;;16.91;60.55;97048.78;4969655;28;20192;-78
2022/11/04 09:55:29;;;;;;;20.37;11.03;;;;;;;16.47;61.30;97053.59;4968452;28;20735;-75
2022/11/04 09:57:57;;;;;;;24.53;10.93;;;;;;;16.67;60.74;97034.81;4969903;28;20209;-76
2022/11/04 10:00:24;;;;;;;16.57;10.47;;;;;;;16.90;60.54;97039.25;4969756;28;20264;-76
2022/11/04 10:03:06;;;;;;;22.43;11.77;;;;;;;17.30;59.22;97032.84;4969959;28;20574;-76
2022/11/04 10:05:58;;;;;;;17.53;9.87;;;;;;;17.26;59.40;97027.94;4968034;28;20196;-75
2022/11/04 10:08:50;;;;;;;15.53;9.37;;;;;;;17.33;58.99;97024.75;4969237;28;20209;-76
2022/11/04 10:11:51;;;;;;;18.37;9.67;;;;;;;17.40;58.72;97018.13;4967389;28;20209;-76
2022/11/04 10:14:23;;;;;;;18.40;10.00;;;;;;;17.43;58.67;97020.53;4969496;28;20321;-73
2022/11/04 10:17:17;;;;;;;15.00;9.20;;;;;;;17.18;59.41;97010.19;4968235;28;20745;-76
2022/11/04 10:19:53;;;;;;;16.70;10.33;;;;;;;17.33;58.78;97005.63;4948583;29;20245;-74
2022/11/04 10:22:36;;;;;;;19.97;10.13;;;;;;;17.10;58.51;97002.84;4949801;28;20268;-77
2022/11/04 10:25:47;;;;;;;20.70;12.20;;;;;;;17.03;58.61;96995.56;4950439;28;20195;-77
2022/11/04 10:28:18;;;;;;;32.60;12.27;;;;;;;17.17;58.34;96987.56;4922235;29;20289;-79
2022/11/04 10:30:50;;;;;;;16.97;11.03;;;;;;;17.29;57.72;96980.59;4951849;28;20351;-77
2022/11/04 10:33:30;;;;;;;23.07;11.37;;;;;;;17.39;57.13;96985.06;4967931;28;20315;-75
2022/11/04 10:36:00;;;;;;;15.03;9.60;;;;;;;17.16;57.66;96993.75;4969476;28;20186;-78
2022/11/04 10:38:31;;;;;;;16.83;11.07;;;;;;;17.32;57.63;96981.22;4969345;28;20193;-78
2022/11/04 10:40:58;;;;;;;22.30;12.03;;;;;;;17.57;57.29;96978.50;4968132;28;20189;-76
2022/11/04 10:43:38;;;;;;;17.33;9.47;;;;;;;17.69;55.91;96959.22;4951382;28;20205;-77
2022/11/04 10:46:23;;;;;;;14.70;9.60;;;;;;;17.64;56.22;96956.09;4969114;28;20224;-75
2022/11/04 10:49:03;;;;;;;15.27;9.27;;;;;;;17.67;56.15;96950.66;4951493;28;20189;-77
2022/11/04 10:51:30;;;;;;;14.00;9.63;;;;;;;17.62;55.99;96954.56;4952063;28;20304;-77
2022/11/04 10:54:00;;;;;;;17.07;10.47;;;;;;;17.52;56.29;96946.56;4969035;28;20229;-76
2022/11/04 10:56:35;;;;;;;17.93;10.73;;;;;;;17.40;57.19;96952.69;4969280;28;20244;-75
2022/11/04 10:59:23;;;;;;;15.23;10.40;;;;;;;17.61;56.60;96938.03;4968967;28;20285;-77
2022/11/04 11:01:55;;;;;;;19.17;9.50;;;;;;;17.14;57.48;96942.47;4974350;28;20246;-75
2022/11/04 11:04:28;;;;;;;22.97;10.77;;;;;;;17.29;57.55;96943.97;4983132;28;20187;-75
2022/11/04 11:06:57;;;;;;;20.23;10.10;;;;;;;17.28;57.49;96922.19;4980122;28;20199;-75
2022/11/04 11:09:31;;;;;;;18.20;10.90;;;;;;;17.52;57.25;96928.22;4964229;28;20212;-78
2022/11/04 11:12:03;;;;;;;18.77;10.33;;;;;;;17.86;56.22;96914.25;4959368;28;20733;-76
2022/11/04 11:14:50;;;;;;;20.20;9.97;;;;;;;17.87;56.10;96915.91;4982996;28;20604;-76
2022/11/04 11:17:36;;;;;;;15.43;9.67;;;;;;;17.91;56.03;96910.44;4964040;28;20202;-75
2022/11/04 11:20:13;;;;;;;17.93;10.50;;;;;;;18.19;55.96;96909.97;4964974;28;20767;-79
2022/11/04 11:22:43;;;;;;;24.80;11.50;;;;;;;18.09;55.92;96907.25;4961225;28;20289;-80
2022/11/04 11:25:29;;;;;;;22.37;10.57;;;;;;;17.74;57.23;96919.59;4962985;28;20741;-76
2022/11/04 11:28:11;;;;;;;20.40;11.17;;;;;;;17.68;57.72;96897.31;4966226;28;20670;-80
2022/11/04 11:31:07;;;;;;;20.03;11.13;;;;;;;18.03;56.45;96897.25;4969379;28;20201;-76
2022/11/04 11:33:47;;;;;;;20.13;10.93;;;;;;;18.07;56.74;96885.56;4945334;28;20247;-75
2022/11/04 11:36:25;;;;;;;14.93;10.07;;;;;;;18.13;56.75;96898.19;4953803;28;20244;-75
2022/11/04 11:39:04;;;;;;;15.97;10.67;;;;;;;17.97;57.44;96889.81;4967568;28;20674;-75
2022/11/04 11:41:46;;;;;;;20.67;11.63;;;;;;;18.01;57.24;96895.69;4950752;28;20193;-75
2022/11/04 11:44:25;;;;;;;17.20;10.67;;;;;;;18.01;57.57;96885.19;4968291;28;20731;-74
2022/11/04 11:46:55;;;;;;;19.80;11.40;;;;;;;18.12;56.95;96872.06;4951120;28;20201;-75
2022/11/04 11:49:29;;;;;;;22.93;11.67;;;;;;;17.98;57.78;96881.03;4950741;28;20187;-76
2022/11/04 11:52:21;;;;;;;19.03;11.13;;;;;;;17.99;57.58;96884.47;4968359;28;20733;-76
2022/11/04 11:54:52;;;;;;;18.60;10.73;;;;;;;17.95;57.71;96864.72;4962478;28;20303;-77
2022/11/04 11:57:22;;;;;;;22.53;12.27;;;;;;;18.02;57.61;96879.00;4963402;28;20301;-77
2022/11/04 11:59:58;;;;;;;20.97;11.60;;;;;;;18.10;57.62;96868.75;4948831;28;20333;-75
2022/11/04 12:03:19;;;;;;;20.07;12.30;;;;;;;17.93;58.87;96866.63;4963210;28;20191;-75
2022/11/04 12:06:14;;;;;;;20.80;13.33;;;;;;;17.72;59.69;96874.34;4946754;29;20215;-73
2022/11/04 12:09:06;;;;;;;26.57;12.70;;;;;;;17.79;59.26;96842.31;4967400;28;20202;-77
2022/11/04 12:12:14;;;;;;;16.77;11.20;;;;;;;17.82;58.99;96860.44;4966711;28;20221;-81
2022/11/04 12:15:17;;;;;;;25.13;13.47;;;;;;;18.16;58.20;96847.28;4966460;28;20598;-81
2022/11/04 12:18:15;;;;;;;21.63;11.87;;;;;;;17.72;59.22;96848.16;4967040;28;20256;-77
2022/11/04 12:20:55;;;;;;;29.50;12.17;;;;;;;17.79;58.77;96844.09;4937254;28;20230;-80
2022/11/04 12:23:30;;;;;;;18.07;11.23;;;;;;;17.87;58.42;96832.06;4967386;28;20200;-78